Terminal Aerodrome Forecast
Issued by NWS

Home | Current Version | Previous Version | Text Only | Print | Product List | Glossary On
Versions: 1 2 3 4 5 6 7 8 9 10 11 12 13 14 15 16 17 18 19 20 21 22 23 24 25 26
000
FTUS43 KLOT 280531
TAFGYY
TAF
KGYY 280531Z 2806/0106 14010KT P6SM BKN080 OVC120
     FM280700 16010KT 6SM -SHRA SCT015 BKN040
     FM281100 17011KT 4SM -RADZ BR OVC012
     FM281500 19012G17KT P6SM SCT008 BKN015
     FM282000 20013G20KT P6SM VCSH BKN020 PROB30 2821/0101 4SM -TSRA
      BKN015CB
     FM010100 20014G22KT 4SM -TSRA BR BKN012CB OVC025
      TEMPO 0102/0106 2SM TSRA BR BKN008CB=

USA.gov is the U.S. government's official web portal to all federal, state and local government web resources and services.